sensor_id;sensor_type;location;lat;lon;timestamp;pressure;altitude;pressure_sealevel;temperature;humidity
64402;BME280;50724;42.376;23.768;2023-03-12T00:01:23;92152.63;;;1.47;78.51
64402;BME280;50724;42.376;23.768;2023-03-12T00:04:27;92154.63;;;1.44;78.32
64402;BME280;50724;42.376;23.768;2023-03-12T00:07:27;92167.66;;;1.32;78.29
64402;BME280;50724;42.376;23.768;2023-03-12T00:10:28;92158.59;;;1.28;77.92
64402;BME280;50724;42.376;23.768;2023-03-12T00:13:28;92167.38;;;1.26;77.14
64402;BME280;50724;42.376;23.768;2023-03-12T00:16:37;92176.88;;;1.25;76.67
64402;BME280;50724;42.376;23.768;2023-03-12T00:19:51;92182.28;;;1.22;75.80
64402;BME280;50724;42.376;23.768;2023-03-12T00:22:51;92184.44;;;1.27;74.88
64402;BME280;50724;42.376;23.768;2023-03-12T00:25:52;92183.13;;;1.32;73.28
64402;BME280;50724;42.376;23.768;2023-03-12T00:28:52;92184.75;;;1.33;72.43
64402;BME280;50724;42.376;23.768;2023-03-12T00:31:53;92176.22;;;1.33;72.01
64402;BME280;50724;42.376;23.768;2023-03-12T00:34:54;92175.91;;;1.36;70.91
64402;BME280;50724;42.376;23.768;2023-03-12T00:37:55;92196.00;;;1.32;70.21
64402;BME280;50724;42.376;23.768;2023-03-12T00:40:55;92188.94;;;1.25;69.97
64402;BME280;50724;42.376;23.768;2023-03-12T00:43:56;92174.13;;;1.17;69.60
64402;BME280;50724;42.376;23.768;2023-03-12T00:46:56;92180.94;;;1.18;70.24
64402;BME280;50724;42.376;23.768;2023-03-12T00:49:57;92182.69;;;1.18;69.58
64402;BME280;50724;42.376;23.768;2023-03-12T00:53:06;92182.44;;;1.21;68.85
64402;BME280;50724;42.376;23.768;2023-03-12T00:56:07;92178.22;;;1.20;69.01
64402;BME280;50724;42.376;23.768;2023-03-12T00:59:08;92192.44;;;1.14;69.02
64402;BME280;50724;42.376;23.768;2023-03-12T01:02:08;92191.47;;;1.06;69.86
64402;BME280;50724;42.376;23.768;2023-03-12T01:05:10;92197.19;;;1.09;69.13
64402;BME280;50724;42.376;23.768;2023-03-12T01:08:15;92204.34;;;1.06;70.08
64402;BME280;50724;42.376;23.768;2023-03-12T01:11:19;92197.03;;;1.01;70.06
64402;BME280;50724;42.376;23.768;2023-03-12T01:14:19;92196.22;;;0.91;70.78
64402;BME280;50724;42.376;23.768;2023-03-12T01:17:20;92203.63;;;0.94;70.68
64402;BME280;50724;42.376;23.768;2023-03-12T01:20:20;92196.59;;;0.87;70.28
64402;BME280;50724;42.376;23.768;2023-03-12T01:23:22;92213.16;;;0.94;70.97
64402;BME280;50724;42.376;23.768;2023-03-12T01:26:23;92218.53;;;0.91;70.64
64402;BME280;50724;42.376;23.768;2023-03-12T01:29:23;92226.53;;;0.88;70.55
64402;BME280;50724;42.376;23.768;2023-03-12T01:32:24;92230.84;;;0.87;70.18
64402;BME280;50724;42.376;23.768;2023-03-12T01:35:24;92221.53;;;0.96;69.52
64402;BME280;50724;42.376;23.768;2023-03-12T01:38:25;92224.91;;;0.96;70.50
64402;BME280;50724;42.376;23.768;2023-03-12T01:41:27;92240.63;;;0.93;70.64
64402;BME280;50724;42.376;23.768;2023-03-12T01:44:28;92241.28;;;0.86;71.79
64402;BME280;50724;42.376;23.768;2023-03-12T01:47:29;92244.50;;;0.78;72.80
64402;BME280;50724;42.376;23.768;2023-03-12T01:50:33;92251.13;;;0.71;74.40
64402;BME280;50724;42.376;23.768;2023-03-12T01:53:34;92254.47;;;0.62;75.26
64402;BME280;50724;42.376;23.768;2023-03-12T01:56:36;92248.63;;;0.60;76.60
64402;BME280;50724;42.376;23.768;2023-03-12T01:59:46;92264.69;;;0.52;76.85
64402;BME280;50724;42.376;23.768;2023-03-12T02:02:50;92255.88;;;0.45;77.41
64402;BME280;50724;42.376;23.768;2023-03-12T02:05:54;92248.03;;;0.47;77.07
64402;BME280;50724;42.376;23.768;2023-03-12T02:08:56;92249.06;;;0.35;78.01
64402;BME280;50724;42.376;23.768;2023-03-12T02:11:58;92250.38;;;0.29;78.29
64402;BME280;50724;42.376;23.768;2023-03-12T02:14:59;92253.19;;;0.26;77.94
64402;BME280;50724;42.376;23.768;2023-03-12T02:18:04;92241.78;;;0.19;77.71
64402;BME280;50724;42.376;23.768;2023-03-12T02:21:15;92243.28;;;0.22;76.70
64402;BME280;50724;42.376;23.768;2023-03-12T02:24:27;92254.84;;;0.27;75.46
64402;BME280;50724;42.376;23.768;2023-03-12T02:27:33;92243.19;;;0.23;75.16
64402;BME280;50724;42.376;23.768;2023-03-12T02:30:38;92253.72;;;0.20;75.03
64402;BME280;50724;42.376;23.768;2023-03-12T02:33:40;92249.13;;;0.24;74.28
64402;BME280;50724;42.376;23.768;2023-03-12T02:36:41;92246.69;;;0.22;74.14
64402;BME280;50724;42.376;23.768;2023-03-12T02:39:43;92254.25;;;0.24;73.47
64402;BME280;50724;42.376;23.768;2023-03-12T02:42:45;92253.94;;;0.17;74.37
64402;BME280;50724;42.376;23.768;2023-03-12T02:45:46;92255.53;;;0.09;74.97
64402;BME280;50724;42.376;23.768;2023-03-12T02:48:50;92275.50;;;0.05;75.77
64402;BME280;50724;42.376;23.768;2023-03-12T02:51:51;92269.53;;;-0.05;76.49
64402;BME280;50724;42.376;23.768;2023-03-12T02:54:51;92272.19;;;-0.07;76.18
64402;BME280;50724;42.376;23.768;2023-03-12T02:57:52;92281.34;;;-0.14;76.31
64402;BME280;50724;42.376;23.768;2023-03-12T03:00:52;92286.59;;;-0.15;76.15
64402;BME280;50724;42.376;23.768;2023-03-12T03:03:53;92275.97;;;-0.11;75.66
64402;BME280;50724;42.376;23.768;2023-03-12T03:06:54;92285.41;;;-0.11;74.99
64402;BME280;50724;42.376;23.768;2023-03-12T03:09:54;92275.72;;;-0.08;74.40
64402;BME280;50724;42.376;23.768;2023-03-12T03:12:54;92272.09;;;-0.05;73.78
64402;BME280;50724;42.376;23.768;2023-03-12T03:15:55;92265.38;;;0.04;73.12
64402;BME280;50724;42.376;23.768;2023-03-12T03:19:00;92277.41;;;0.03;72.98
64402;BME280;50724;42.376;23.768;2023-03-12T03:22:01;92277.53;;;0.02;72.45
64402;BME280;50724;42.376;23.768;2023-03-12T03:25:02;92279.16;;;0.03;71.80
64402;BME280;50724;42.376;23.768;2023-03-12T03:28:02;92289.06;;;0.07;70.77
64402;BME280;50724;42.376;23.768;2023-03-12T03:31:03;92303.03;;;0.14;68.91
64402;BME280;50724;42.376;23.768;2023-03-12T03:34:04;92300.59;;;0.13;68.80
64402;BME280;50724;42.376;23.768;2023-03-12T03:37:04;92308.31;;;0.13;69.34
64402;BME280;50724;42.376;23.768;2023-03-12T03:40:05;92311.94;;;0.10;69.08
64402;BME280;50724;42.376;23.768;2023-03-12T03:43:14;92317.47;;;0.06;69.14
64402;BME280;50724;42.376;23.768;2023-03-12T03:46:15;92314.34;;;0.02;68.95
64402;BME280;50724;42.376;23.768;2023-03-12T03:49:15;92312.25;;;-0.04;68.31
64402;BME280;50724;42.376;23.768;2023-03-12T03:52:16;92321.09;;;0.03;66.66
64402;BME280;50724;42.376;23.768;2023-03-12T03:55:16;92335.00;;;0.00;67.45
64402;BME280;50724;42.376;23.768;2023-03-12T03:58:17;92341.56;;;0.05;67.98
64402;BME280;50724;42.376;23.768;2023-03-12T04:01:27;92347.22;;;-0.13;69.75
64402;BME280;50724;42.376;23.768;2023-03-12T04:04:27;92339.50;;;-0.13;70.20
64402;BME280;50724;42.376;23.768;2023-03-12T04:07:28;92342.53;;;-0.19;70.69
64402;BME280;50724;42.376;23.768;2023-03-12T04:10:29;92353.53;;;-0.17;70.84
64402;BME280;50724;42.376;23.768;2023-03-12T04:13:29;92340.34;;;-0.23;70.26
64402;BME280;50724;42.376;23.768;2023-03-12T04:16:30;92350.53;;;-0.22;69.89
64402;BME280;50724;42.376;23.768;2023-03-12T04:19:30;92351.81;;;-0.27;70.00
64402;BME280;50724;42.376;23.768;2023-03-12T04:22:30;92351.13;;;-0.29;69.85
64402;BME280;50724;42.376;23.768;2023-03-12T04:25:31;92358.13;;;-0.31;69.55
64402;BME280;50724;42.376;23.768;2023-03-12T04:28:32;92359.06;;;-0.32;69.28
64402;BME280;50724;42.376;23.768;2023-03-12T04:31:32;92348.69;;;-0.31;69.22
64402;BME280;50724;42.376;23.768;2023-03-12T04:34:33;92357.22;;;-0.41;69.68
64402;BME280;50724;42.376;23.768;2023-03-12T04:37:33;92356.56;;;-0.54;70.38
64402;BME280;50724;42.376;23.768;2023-03-12T04:40:34;92358.28;;;-0.44;69.94
64402;BME280;50724;42.376;23.768;2023-03-12T04:43:34;92363.91;;;-0.50;70.62
64402;BME280;50724;42.376;23.768;2023-03-12T04:46:35;92370.19;;;-0.54;70.22
64402;BME280;50724;42.376;23.768;2023-03-12T04:49:37;92394.25;;;-0.55;70.07
64402;BME280;50724;42.376;23.768;2023-03-12T04:52:38;92394.25;;;-0.55;69.14
64402;BME280;50724;42.376;23.768;2023-03-12T04:55:38;92405.56;;;-0.46;68.92
64402;BME280;50724;42.376;23.768;2023-03-12T04:58:39;92400.94;;;-0.10;68.33
64402;BME280;50724;42.376;23.768;2023-03-12T05:01:40;92408.75;;;0.73;64.75
64402;BME280;50724;42.376;23.768;2023-03-12T05:04:40;92423.03;;;0.77;63.35
64402;BME280;50724;42.376;23.768;2023-03-12T05:07:41;92428.56;;;0.41;65.65
64402;BME280;50724;42.376;23.768;2023-03-12T05:10:41;92438.16;;;0.91;64.00
64402;BME280;50724;42.376;23.768;2023-03-12T05:13:44;92440.38;;;0.64;63.17
64402;BME280;50724;42.376;23.768;2023-03-12T05:16:45;92438.25;;;0.90;62.41
64402;BME280;50724;42.376;23.768;2023-03-12T05:19:45;92442.16;;;1.05;61.89
64402;BME280;50724;42.376;23.768;2023-03-12T05:22:45;92441.00;;;1.18;61.13
64402;BME280;50724;42.376;23.768;2023-03-12T05:25:46;92457.16;;;0.58;62.85
64402;BME280;50724;42.376;23.768;2023-03-12T05:28:46;92456.03;;;0.40;63.44
64402;BME280;50724;42.376;23.768;2023-03-12T05:31:47;92449.88;;;0.32;63.42
64402;BME280;50724;42.376;23.768;2023-03-12T05:34:48;92455.09;;;0.41;64.24
64402;BME280;50724;42.376;23.768;2023-03-12T05:37:48;92461.06;;;0.42;64.12
64402;BME280;50724;42.376;23.768;2023-03-12T05:40:53;92462.69;;;0.43;64.08
64402;BME280;50724;42.376;23.768;2023-03-12T05:43:55;92467.00;;;0.42;63.64
64402;BME280;50724;42.376;23.768;2023-03-12T05:46:56;92468.88;;;0.51;63.72
64402;BME280;50724;42.376;23.768;2023-03-12T05:49:57;92471.75;;;0.58;63.54
64402;BME280;50724;42.376;23.768;2023-03-12T05:52:57;92485.63;;;0.66;62.79
64402;BME280;50724;42.376;23.768;2023-03-12T05:56:02;92485.47;;;0.79;62.69
64402;BME280;50724;42.376;23.768;2023-03-12T05:59:04;92491.63;;;0.88;62.08
64402;BME280;50724;42.376;23.768;2023-03-12T06:02:04;92491.00;;;0.95;62.61
64402;BME280;50724;42.376;23.768;2023-03-12T06:05:05;92497.53;;;0.99;61.83
64402;BME280;50724;42.376;23.768;2023-03-12T06:08:06;92501.91;;;1.08;62.01
64402;BME280;50724;42.376;23.768;2023-03-12T06:11:07;92504.25;;;1.11;59.80
64402;BME280;50724;42.376;23.768;2023-03-12T06:14:07;92505.69;;;1.25;59.49
64402;BME280;50724;42.376;23.768;2023-03-12T06:17:08;92513.91;;;1.39;59.66
64402;BME280;50724;42.376;23.768;2023-03-12T06:20:09;92517.03;;;1.43;57.89
64402;BME280;50724;42.376;23.768;2023-03-12T06:23:09;92518.09;;;1.61;59.01
64402;BME280;50724;42.376;23.768;2023-03-12T06:26:10;92519.72;;;1.62;58.50
64402;BME280;50724;42.376;23.768;2023-03-12T06:29:11;92522.25;;;1.73;58.57
64402;BME280;50724;42.376;23.768;2023-03-12T06:32:12;92526.47;;;1.84;56.57
64402;BME280;50724;42.376;23.768;2023-03-12T06:35:13;92532.13;;;1.98;58.11
64402;BME280;50724;42.376;23.768;2023-03-12T06:38:13;92535.84;;;2.15;57.10
64402;BME280;50724;42.376;23.768;2023-03-12T06:41:15;92543.88;;;2.22;54.99
64402;BME280;50724;42.376;23.768;2023-03-12T06:44:16;92537.31;;;2.08;55.50
64402;BME280;50724;42.376;23.768;2023-03-12T06:47:17;92541.59;;;2.38;55.84
64402;BME280;50724;42.376;23.768;2023-03-12T06:50:17;92545.81;;;2.29;55.02
64402;BME280;50724;42.376;23.768;2023-03-12T06:53:19;92560.06;;;2.33;55.40
64402;BME280;50724;42.376;23.768;2023-03-12T06:56:19;92539.22;;;2.55;54.99
64402;BME280;50724;42.376;23.768;2023-03-12T06:59:20;92551.44;;;2.63;54.40
64402;BME280;50724;42.376;23.768;2023-03-12T07:02:21;92552.56;;;2.79;54.88
64402;BME280;50724;42.376;23.768;2023-03-12T07:05:22;92568.88;;;2.90;52.17
64402;BME280;50724;42.376;23.768;2023-03-12T07:08:24;92561.81;;;2.92;50.09
64402;BME280;50724;42.376;23.768;2023-03-12T07:11:25;92572.97;;;3.11;51.57
64402;BME280;50724;42.376;23.768;2023-03-12T07:14:25;92569.59;;;3.20;50.46
64402;BME280;50724;42.376;23.768;2023-03-12T07:17:28;92577.88;;;3.24;50.88
64402;BME280;50724;42.376;23.768;2023-03-12T07:20:28;92573.25;;;3.27;49.81
64402;BME280;50724;42.376;23.768;2023-03-12T07:23:28;92570.09;;;3.14;48.33
64402;BME280;50724;42.376;23.768;2023-03-12T07:26:29;92567.69;;;3.32;47.74
64402;BME280;50724;42.376;23.768;2023-03-12T07:29:31;92587.78;;;3.38;47.59
64402;BME280;50724;42.376;23.768;2023-03-12T07:32:32;92575.44;;;3.32;47.01
64402;BME280;50724;42.376;23.768;2023-03-12T07:35:32;92584.41;;;3.28;47.42
64402;BME280;50724;42.376;23.768;2023-03-12T07:38:33;92591.88;;;3.31;46.09
64402;BME280;50724;42.376;23.768;2023-03-12T07:41:33;92589.44;;;3.39;45.73
64402;BME280;50724;42.376;23.768;2023-03-12T07:44:36;92592.41;;;2.96;43.73
64402;BME280;50724;42.376;23.768;2023-03-12T07:47:37;92596.03;;;2.84;44.86
64402;BME280;50724;42.376;23.768;2023-03-12T07:50:37;92596.59;;;2.78;45.13
64402;BME280;50724;42.376;23.768;2023-03-12T07:53:37;92595.41;;;3.11;46.80
64402;BME280;50724;42.376;23.768;2023-03-12T07:56:38;92602.34;;;3.10;46.63
64402;BME280;50724;42.376;23.768;2023-03-12T07:59:39;92594.06;;;3.16;45.16
64402;BME280;50724;42.376;23.768;2023-03-12T08:02:39;92606.94;;;2.88;44.62
64402;BME280;50724;42.376;23.768;2023-03-12T08:05:40;92611.84;;;3.00;46.06
64402;BME280;50724;42.376;23.768;2023-03-12T08:08:40;92607.13;;;3.43;44.34
64402;BME280;50724;42.376;23.768;2023-03-12T08:11:41;92617.97;;;3.47;45.44
64402;BME280;50724;42.376;23.768;2023-03-12T08:14:42;92602.47;;;3.66;45.56
64402;BME280;50724;42.376;23.768;2023-03-12T08:17:42;92614.72;;;3.83;45.92
64402;BME280;50724;42.376;23.768;2023-03-12T08:20:43;92615.88;;;4.08;43.31
64402;BME280;50724;42.376;23.768;2023-03-12T08:23:43;92640.84;;;3.80;44.61
64402;BME280;50724;42.376;23.768;2023-03-12T08:26:43;92638.53;;;3.29;43.31
64402;BME280;50724;42.376;23.768;2023-03-12T08:29:44;92650.63;;;3.19;46.26
64402;BME280;50724;42.376;23.768;2023-03-12T08:32:45;92643.84;;;3.57;46.57
64402;BME280;50724;42.376;23.768;2023-03-12T08:35:46;92657.84;;;3.73;46.14
64402;BME280;50724;42.376;23.768;2023-03-12T08:38:47;92643.31;;;3.43;46.54
64402;BME280;50724;42.376;23.768;2023-03-12T08:41:48;92658.09;;;3.13;48.41
64402;BME280;50724;42.376;23.768;2023-03-12T08:44:48;92654.94;;;3.00;48.90
64402;BME280;50724;42.376;23.768;2023-03-12T08:47:48;92656.22;;;3.43;48.74
64402;BME280;50724;42.376;23.768;2023-03-12T08:50:49;92651.72;;;3.36;49.37
64402;BME280;50724;42.376;23.768;2023-03-12T08:53:50;92662.47;;;3.31;49.20
64402;BME280;50724;42.376;23.768;2023-03-12T08:56:51;92658.25;;;3.21;46.96
64402;BME280;50724;42.376;23.768;2023-03-12T08:59:52;92654.69;;;3.12;48.78
64402;BME280;50724;42.376;23.768;2023-03-12T09:02:52;92663.25;;;3.13;47.36
64402;BME280;50724;42.376;23.768;2023-03-12T09:06:11;92651.59;;;3.18;48.65
64402;BME280;50724;42.376;23.768;2023-03-12T09:09:24;92650.75;;;3.18;49.99
64402;BME280;50724;42.376;23.768;2023-03-12T09:12:24;92653.78;;;3.42;49.81
64402;BME280;50724;42.376;23.768;2023-03-12T09:15:25;92654.97;;;3.28;49.12
64402;BME280;50724;42.376;23.768;2023-03-12T09:18:26;92667.00;;;2.90;49.56
64402;BME280;50724;42.376;23.768;2023-03-12T09:21:27;92653.72;;;3.04;51.71
64402;BME280;50724;42.376;23.768;2023-03-12T09:24:27;92649.63;;;2.92;51.23
64402;BME280;50724;42.376;23.768;2023-03-12T09:27:28;92649.75;;;2.90;51.20
64402;BME280;50724;42.376;23.768;2023-03-12T09:30:28;92652.75;;;2.95;51.84
64402;BME280;50724;42.376;23.768;2023-03-12T09:33:30;92648.28;;;2.97;51.13
64402;BME280;50724;42.376;23.768;2023-03-12T09:36:31;92614.78;;;2.86;50.07
64402;BME280;50724;42.376;23.768;2023-03-12T09:39:31;92615.81;;;3.04;50.71
64402;BME280;50724;42.376;23.768;2023-03-12T09:42:39;92626.84;;;3.35;49.92
64402;BME280;50724;42.376;23.768;2023-03-12T09:45:45;92625.44;;;4.07;46.53
64402;BME280;50724;42.376;23.768;2023-03-12T09:48:47;92613.56;;;4.14;46.59
64402;BME280;50724;42.376;23.768;2023-03-12T09:51:53;92614.88;;;4.28;45.88
64402;BME280;50724;42.376;23.768;2023-03-12T09:55:12;92624.44;;;4.08;46.43
64402;BME280;50724;42.376;23.768;2023-03-12T09:58:27;92639.47;;;4.05;46.75
64402;BME280;50724;42.376;23.768;2023-03-12T10:01:46;92629.25;;;3.94;46.64
64402;BME280;50724;42.376;23.768;2023-03-12T10:04:54;92637.31;;;3.91;46.35
64402;BME280;50724;42.376;23.768;2023-03-12T10:11:42;92644.81;;;4.77;45.89
64402;BME280;50724;42.376;23.768;2023-03-12T10:27:41;92636.66;;;4.72;42.95
64402;BME280;50724;42.376;23.768;2023-03-12T10:30:49;92632.81;;;5.03;44.92
64402;BME280;50724;42.376;23.768;2023-03-12T10:33:58;92627.81;;;5.37;42.58
64402;BME280;50724;42.376;23.768;2023-03-12T10:40:37;92623.66;;;5.79;43.09
64402;BME280;50724;42.376;23.768;2023-03-12T10:43:40;92608.34;;;5.50;42.03
64402;BME280;50724;42.376;23.768;2023-03-12T10:49:48;92601.38;;;5.16;41.27
64402;BME280;50724;42.376;23.768;2023-03-12T10:52:52;92601.28;;;5.61;43.00
64402;BME280;50724;42.376;23.768;2023-03-12T10:56:13;92600.03;;;5.12;42.26
64402;BME280;50724;42.376;23.768;2023-03-12T10:59:20;92609.25;;;5.41;42.55
64402;BME280;50724;42.376;23.768;2023-03-12T11:02:28;92614.63;;;5.66;38.55
64402;BME280;50724;42.376;23.768;2023-03-12T11:05:35;92608.03;;;5.53;39.84
64402;BME280;50724;42.376;23.768;2023-03-12T11:08:36;92602.84;;;5.53;37.22
64402;BME280;50724;42.376;23.768;2023-03-12T11:11:37;92591.28;;;5.83;38.69
64402;BME280;50724;42.376;23.768;2023-03-12T11:14:44;92601.91;;;5.54;37.09
64402;BME280;50724;42.376;23.768;2023-03-12T11:17:46;92592.19;;;5.21;38.89
64402;BME280;50724;42.376;23.768;2023-03-12T11:20:48;92577.38;;;5.31;40.99
64402;BME280;50724;42.376;23.768;2023-03-12T11:27:01;92595.75;;;5.20;42.81
64402;BME280;50724;42.376;23.768;2023-03-12T11:30:06;92597.00;;;5.51;41.58
64402;BME280;50724;42.376;23.768;2023-03-12T11:33:10;92609.00;;;5.35;41.22
64402;BME280;50724;42.376;23.768;2023-03-12T11:36:23;92598.50;;;5.54;41.59
64402;BME280;50724;42.376;23.768;2023-03-12T11:43:02;92568.41;;;5.26;41.76
64402;BME280;50724;42.376;23.768;2023-03-12T11:49:34;92601.91;;;5.90;42.36
64402;BME280;50724;42.376;23.768;2023-03-12T11:56:33;92577.66;;;5.81;42.18
64402;BME280;50724;42.376;23.768;2023-03-12T12:00:21;92596.69;;;5.19;42.39
64402;BME280;50724;42.376;23.768;2023-03-12T12:20:24;92602.50;;;5.31;41.03
64402;BME280;50724;42.376;23.768;2023-03-12T12:23:31;92597.75;;;5.44;42.49
64402;BME280;50724;42.376;23.768;2023-03-12T12:26:45;92587.69;;;5.41;41.39
64402;BME280;50724;42.376;23.768;2023-03-12T12:33:17;92572.38;;;5.91;40.68
64402;BME280;50724;42.376;23.768;2023-03-12T12:36:23;92599.53;;;6.22;41.29
64402;BME280;50724;42.376;23.768;2023-03-12T12:39:32;92599.28;;;5.72;41.45
64402;BME280;50724;42.376;23.768;2023-03-12T12:42:38;92601.38;;;5.51;42.31
64402;BME280;50724;42.376;23.768;2023-03-12T12:45:43;92593.69;;;5.41;42.79
64402;BME280;50724;42.376;23.768;2023-03-12T12:52:00;92608.81;;;5.46;43.01
64402;BME280;50724;42.376;23.768;2023-03-12T12:55:11;92604.34;;;5.56;43.27
64402;BME280;50724;42.376;23.768;2023-03-12T13:01:19;92607.47;;;5.60;41.18
64402;BME280;50724;42.376;23.768;2023-03-12T13:04:40;92598.69;;;5.61;42.36
64402;BME280;50724;42.376;23.768;2023-03-12T13:07:41;92596.69;;;5.19;43.37
64402;BME280;50724;42.376;23.768;2023-03-12T13:10:42;92610.88;;;5.42;41.87
64402;BME280;50724;42.376;23.768;2023-03-12T13:13:43;92611.53;;;5.62;41.83
64402;BME280;50724;42.376;23.768;2023-03-12T13:16:47;92597.53;;;5.37;42.53
64402;BME280;50724;42.376;23.768;2023-03-12T13:19:59;92614.84;;;5.72;43.40
64402;BME280;50724;42.376;23.768;2023-03-12T13:23:40;92609.81;;;5.71;43.77
64402;BME280;50724;42.376;23.768;2023-03-12T13:29:50;92625.09;;;5.74;43.75
64402;BME280;50724;42.376;23.768;2023-03-12T13:39:33;92641.47;;;4.57;45.42
64402;BME280;50724;42.376;23.768;2023-03-12T13:42:37;92644.66;;;4.78;47.13
64402;BME280;50724;42.376;23.768;2023-03-12T13:49:21;92649.22;;;4.94;44.69
64402;BME280;50724;42.376;23.768;2023-03-12T13:52:25;92663.59;;;4.52;44.43
64402;BME280;50724;42.376;23.768;2023-03-12T13:55:31;92657.56;;;4.61;45.46
64402;BME280;50724;42.376;23.768;2023-03-12T13:59:25;92669.31;;;4.46;46.89
64402;BME280;50724;42.376;23.768;2023-03-12T14:02:04;92671.84;;;4.65;46.45
64402;BME280;50724;42.376;23.768;2023-03-12T14:05:08;92668.06;;;4.59;46.63
64402;BME280;50724;42.376;23.768;2023-03-12T14:08:21;92681.72;;;4.52;46.56
64402;BME280;50724;42.376;23.768;2023-03-12T14:15:25;92678.16;;;5.17;46.11
64402;BME280;50724;42.376;23.768;2023-03-12T14:18:29;92686.50;;;5.38;44.82
64402;BME280;50724;42.376;23.768;2023-03-12T14:21:34;92672.94;;;5.26;45.87
64402;BME280;50724;42.376;23.768;2023-03-12T14:24:39;92678.53;;;5.67;45.16
64402;BME280;50724;42.376;23.768;2023-03-12T14:27:44;92683.63;;;5.58;44.87
64402;BME280;50724;42.376;23.768;2023-03-12T14:30:59;92683.56;;;5.50;45.12
64402;BME280;50724;42.376;23.768;2023-03-12T14:37:21;92673.41;;;5.75;44.40
64402;BME280;50724;42.376;23.768;2023-03-12T14:43:53;92685.59;;;5.29;45.81
64402;BME280;50724;42.376;23.768;2023-03-12T14:47:04;92690.53;;;5.50;45.72
64402;BME280;50724;42.376;23.768;2023-03-12T14:50:25;92695.06;;;5.21;45.72
64402;BME280;50724;42.376;23.768;2023-03-12T14:53:37;92688.19;;;5.29;47.04
64402;BME280;50724;42.376;23.768;2023-03-12T14:56:42;92692.84;;;5.26;47.37
64402;BME280;50724;42.376;23.768;2023-03-12T14:59:51;92695.84;;;5.04;47.47
64402;BME280;50724;42.376;23.768;2023-03-12T15:02:53;92720.50;;;5.08;47.40
64402;BME280;50724;42.376;23.768;2023-03-12T15:05:55;92711.84;;;4.90;47.98
64402;BME280;50724;42.376;23.768;2023-03-12T15:08:58;92704.00;;;4.72;47.65
64402;BME280;50724;42.376;23.768;2023-03-12T15:12:23;92702.06;;;4.74;47.94
64402;BME280;50724;42.376;23.768;2023-03-12T15:15:43;92713.06;;;4.85;48.46
64402;BME280;50724;42.376;23.768;2023-03-12T15:18:45;92712.25;;;4.95;48.83
64402;BME280;50724;42.376;23.768;2023-03-12T15:21:48;92708.22;;;4.73;49.00
64402;BME280;50724;42.376;23.768;2023-03-12T15:24:50;92720.97;;;4.47;48.95
64402;BME280;50724;42.376;23.768;2023-03-12T15:31:21;92731.03;;;4.50;48.90
64402;BME280;50724;42.376;23.768;2023-03-12T15:34:32;92741.91;;;4.63;48.77
64402;BME280;50724;42.376;23.768;2023-03-12T15:37:34;92749.00;;;4.61;48.92
64402;BME280;50724;42.376;23.768;2023-03-12T15:40:37;92763.59;;;4.53;48.98
64402;BME280;50724;42.376;23.768;2023-03-12T15:43:42;92759.13;;;4.45;48.92
64402;BME280;50724;42.376;23.768;2023-03-12T15:46:51;92762.81;;;4.24;49.23
64402;BME280;50724;42.376;23.768;2023-03-12T15:49:58;92768.00;;;4.14;49.90
64402;BME280;50724;42.376;23.768;2023-03-12T16:02:33;92794.34;;;3.60;51.70
64402;BME280;50724;42.376;23.768;2023-03-12T16:05:37;92806.31;;;3.52;51.21
64402;BME280;50724;42.376;23.768;2023-03-12T16:08:43;92815.66;;;3.43;51.27
64402;BME280;50724;42.376;23.768;2023-03-12T16:11:45;92813.47;;;3.38;51.67
64402;BME280;50724;42.376;23.768;2023-03-12T16:14:47;92813.03;;;3.33;51.40
64402;BME280;50724;42.376;23.768;2023-03-12T16:17:48;92827.22;;;3.39;51.44
64402;BME280;50724;42.376;23.768;2023-03-12T16:20:50;92833.84;;;3.32;51.39
64402;BME280;50724;42.376;23.768;2023-03-12T16:23:51;92846.91;;;3.30;51.43
64402;BME280;50724;42.376;23.768;2023-03-12T16:26:57;92840.50;;;3.25;51.65
64402;BME280;50724;42.376;23.768;2023-03-12T16:29:57;92852.44;;;3.26;51.73
64402;BME280;50724;42.376;23.768;2023-03-12T16:32:59;92858.09;;;3.10;52.09
64402;BME280;50724;42.376;23.768;2023-03-12T16:36:00;92861.31;;;3.03;52.58
64402;BME280;50724;42.376;23.768;2023-03-12T16:39:00;92871.22;;;2.98;52.81
64402;BME280;50724;42.376;23.768;2023-03-12T16:42:01;92874.44;;;2.90;52.99
64402;BME280;50724;42.376;23.768;2023-03-12T16:45:02;92868.13;;;2.83;53.22
64402;BME280;50724;42.376;23.768;2023-03-12T16:48:04;92889.63;;;2.84;53.32
64402;BME280;50724;42.376;23.768;2023-03-12T16:51:12;92889.28;;;2.77;53.40
64402;BME280;50724;42.376;23.768;2023-03-12T16:54:13;92888.72;;;2.73;53.43
64402;BME280;50724;42.376;23.768;2023-03-12T17:00:22;92911.28;;;2.71;52.61
64402;BME280;50724;42.376;23.768;2023-03-12T17:03:36;92916.31;;;2.73;52.57
64402;BME280;50724;42.376;23.768;2023-03-12T17:06:37;92930.88;;;2.74;52.51
64402;BME280;50724;42.376;23.768;2023-03-12T17:09:39;92927.94;;;2.67;52.57
64402;BME280;50724;42.376;23.768;2023-03-12T17:12:41;92940.16;;;2.65;52.48
64402;BME280;50724;42.376;23.768;2023-03-12T17:15:42;92953.13;;;2.75;51.98
64402;BME280;50724;42.376;23.768;2023-03-12T17:18:42;92952.22;;;2.76;52.46
64402;BME280;50724;42.376;23.768;2023-03-12T17:21:43;92955.41;;;2.68;52.37
64402;BME280;50724;42.376;23.768;2023-03-12T17:24:43;92960.66;;;2.78;51.94
64402;BME280;50724;42.376;23.768;2023-03-12T17:27:46;92973.59;;;2.67;52.53
64402;BME280;50724;42.376;23.768;2023-03-12T17:30:46;92969.69;;;2.72;52.31
64402;BME280;50724;42.376;23.768;2023-03-12T17:33:46;92975.41;;;2.55;52.68
64402;BME280;50724;42.376;23.768;2023-03-12T17:36:47;92968.91;;;2.61;52.40
64402;BME280;50724;42.376;23.768;2023-03-12T17:39:47;92987.00;;;2.61;52.58
64402;BME280;50724;42.376;23.768;2023-03-12T17:42:48;92985.13;;;2.52;52.85
64402;BME280;50724;42.376;23.768;2023-03-12T17:45:49;92999.84;;;2.40;53.39
64402;BME280;50724;42.376;23.768;2023-03-12T17:48:49;93002.28;;;2.42;53.42
64402;BME280;50724;42.376;23.768;2023-03-12T17:51:49;92998.19;;;2.39;53.39
64402;BME280;50724;42.376;23.768;2023-03-12T17:54:50;93006.53;;;2.32;53.62